createdAt,value
2017-07-27T00:01:27.349Z,18.09
2017-07-27T00:03:55.696Z,18.12
2017-07-27T00:06:24.320Z,18.09
2017-07-27T00:08:52.645Z,18.19
2017-07-27T00:11:20.974Z,18.18
2017-07-27T00:13:49.320Z,18.20
2017-07-27T00:16:17.663Z,18.26
2017-07-27T00:18:46.031Z,18.22
2017-07-27T00:21:14.377Z,18.30
2017-07-27T00:23:42.704Z,18.28
2017-07-27T00:26:11.049Z,18.31
2017-07-27T00:28:39.382Z,18.37
2017-07-27T00:31:07.980Z,18.38
2017-07-27T00:33:36.318Z,18.38
2017-07-27T00:36:04.651Z,18.38
2017-07-27T00:38:33.024Z,18.42
2017-07-27T00:41:01.340Z,18.45
2017-07-27T00:43:29.693Z,18.43
2017-07-27T00:45:58.025Z,18.41
2017-07-27T00:48:26.376Z,18.46
2017-07-27T00:50:54.718Z,18.48
2017-07-27T00:53:23.041Z,18.46
2017-07-27T00:55:51.383Z,18.44
2017-07-27T00:58:19.705Z,18.38
2017-07-27T01:00:48.027Z,18.44
2017-07-27T01:03:16.378Z,18.48
2017-07-27T01:05:44.717Z,18.48
2017-07-27T01:08:13.072Z,18.51
2017-07-27T01:10:41.416Z,18.46
2017-07-27T01:13:09.770Z,18.46
2017-07-27T01:15:38.110Z,18.51
2017-07-27T01:18:06.456Z,18.50
2017-07-27T01:20:35.097Z,18.51
2017-07-27T01:23:03.434Z,18.53
2017-07-27T01:25:31.774Z,18.46
2017-07-27T01:28:00.125Z,18.49
2017-07-27T01:30:28.448Z,18.50
2017-07-27T01:32:56.798Z,18.53
2017-07-27T01:35:25.128Z,18.57
2017-07-27T01:37:53.456Z,18.56
2017-07-27T01:40:21.810Z,18.56
2017-07-27T01:42:50.141Z,18.52
2017-07-27T01:45:18.490Z,18.56
2017-07-27T01:47:46.822Z,18.58
2017-07-27T01:50:15.168Z,18.51
2017-07-27T01:52:43.549Z,18.44
2017-07-27T01:55:11.887Z,18.53
2017-07-27T01:57:40.227Z,18.52
2017-07-27T02:00:10.195Z,18.58
2017-07-27T02:02:38.569Z,18.49
2017-07-27T02:05:06.962Z,18.47
2017-07-27T02:07:35.295Z,18.45
2017-07-27T02:10:03.922Z,18.49
2017-07-27T02:12:32.261Z,18.53
2017-07-27T02:15:00.603Z,18.53
2017-07-27T02:17:28.960Z,18.55
2017-07-27T02:19:57.303Z,18.53
2017-07-27T02:22:25.672Z,18.57
2017-07-27T02:24:54.036Z,18.43
2017-07-27T02:27:22.375Z,18.47
2017-07-27T02:29:50.702Z,18.47
2017-07-27T02:32:19.041Z,18.47
2017-07-27T02:34:47.396Z,18.48
2017-07-27T02:37:16.037Z,18.39
2017-07-27T02:39:44.381Z,18.38
2017-07-27T02:42:12.927Z,18.44
2017-07-27T02:44:41.266Z,18.49
2017-07-27T02:47:09.583Z,18.40
2017-07-27T02:49:37.920Z,18.46
2017-07-27T02:52:06.245Z,18.39
2017-07-27T02:54:34.590Z,18.42
2017-07-27T02:57:02.956Z,18.45
2017-07-27T02:59:31.270Z,18.46
2017-07-27T03:01:59.614Z,18.45
2017-07-27T03:04:27.963Z,18.47
2017-07-27T03:06:56.288Z,18.55
2017-07-27T03:09:24.620Z,18.54
2017-07-27T03:11:52.951Z,18.55
2017-07-27T03:14:21.535Z,18.53
2017-07-27T03:16:49.842Z,18.47
2017-07-27T03:19:18.174Z,18.46
2017-07-27T03:21:46.506Z,18.45
2017-07-27T03:24:14.828Z,18.52
2017-07-27T03:26:43.181Z,18.53
2017-07-27T03:29:11.509Z,18.56
2017-07-27T03:31:39.855Z,18.50
2017-07-27T03:34:08.204Z,18.55
2017-07-27T03:36:36.520Z,18.53
2017-07-27T03:39:04.876Z,18.56
2017-07-27T03:41:33.191Z,18.56
2017-07-27T03:44:01.551Z,18.57
2017-07-27T03:46:29.903Z,18.58
2017-07-27T03:48:58.243Z,18.59
2017-07-27T03:51:26.589Z,18.64
2017-07-27T03:53:54.902Z,18.58
2017-07-27T03:56:23.246Z,18.54
2017-07-27T03:58:51.596Z,18.58
2017-07-27T04:01:19.930Z,18.63
2017-07-27T04:03:48.275Z,18.63
2017-07-27T04:06:16.616Z,18.72
2017-07-27T04:08:44.949Z,18.73
2017-07-27T04:11:13.302Z,18.76
2017-07-27T04:13:41.934Z,18.72
2017-07-27T04:16:10.542Z,18.75
2017-07-27T04:18:38.863Z,18.72
2017-07-27T04:21:07.187Z,18.69
2017-07-27T04:23:35.544Z,18.70
2017-07-27T04:26:03.883Z,18.72
2017-07-27T04:28:32.247Z,18.73
2017-07-27T04:31:00.596Z,18.71
2017-07-27T04:33:28.937Z,18.70
2017-07-27T04:35:57.277Z,18.78
2017-07-27T04:38:25.599Z,18.77
2017-07-27T04:40:54.865Z,18.76
2017-07-27T04:43:23.194Z,18.84
2017-07-27T04:45:51.520Z,18.89
2017-07-27T04:48:20.638Z,18.93
2017-07-27T04:50:48.974Z,18.96
2017-07-27T04:53:17.580Z,18.96
2017-07-27T04:55:45.922Z,18.95
2017-07-27T04:58:14.257Z,18.94
2017-07-27T05:00:42.611Z,18.96
2017-07-27T05:03:10.928Z,18.90
2017-07-27T05:05:39.267Z,18.88
2017-07-27T05:08:08.221Z,18.84
2017-07-27T05:10:36.566Z,18.90
2017-07-27T05:13:05.678Z,18.91
2017-07-27T05:15:34.019Z,18.95
2017-07-27T05:18:02.355Z,18.96
2017-07-27T05:20:30.671Z,19.03
2017-07-27T05:22:59.003Z,19.12
2017-07-27T05:25:27.334Z,19.12
2017-07-27T05:27:55.667Z,19.20
2017-07-27T05:30:24.332Z,19.26
2017-07-27T05:32:52.646Z,19.32
2017-07-27T05:35:20.959Z,19.35
2017-07-27T05:37:49.296Z,19.32
2017-07-27T05:40:17.623Z,19.35
2017-07-27T05:42:45.968Z,19.42
2017-07-27T05:45:14.307Z,19.43
2017-07-27T05:47:42.663Z,19.39
2017-07-27T05:50:11.027Z,19.39
2017-07-27T05:52:39.363Z,19.42
2017-07-27T05:55:08.172Z,19.43
2017-07-27T05:57:36.522Z,19.42
2017-07-27T06:00:04.863Z,19.46
2017-07-27T06:02:33.207Z,19.42
2017-07-27T06:05:01.548Z,19.44
2017-07-27T06:07:29.898Z,19.44
2017-07-27T06:09:58.635Z,19.44
2017-07-27T06:12:26.966Z,19.50
2017-07-27T06:14:55.299Z,19.48
2017-07-27T06:17:23.629Z,19.52
2017-07-27T06:19:51.991Z,19.52
2017-07-27T06:22:20.357Z,19.56
2017-07-27T06:24:48.703Z,19.52
2017-07-27T06:27:17.057Z,19.55
2017-07-27T06:29:45.405Z,19.53
2017-07-27T06:32:13.753Z,19.51
2017-07-27T06:34:42.096Z,19.54
2017-07-27T06:37:11.188Z,19.53
2017-07-27T06:39:39.543Z,19.55
2017-07-27T06:42:07.883Z,19.61
2017-07-27T06:44:36.484Z,19.67
2017-07-27T06:47:04.792Z,19.77
2017-07-27T06:49:33.122Z,19.81
2017-07-27T06:52:01.786Z,19.92
2017-07-27T06:54:30.213Z,19.96
2017-07-27T06:56:58.559Z,20.03
2017-07-27T06:59:26.919Z,20.08
2017-07-27T07:01:55.259Z,20.08
2017-07-27T07:04:23.618Z,20.11
2017-07-27T07:06:51.956Z,20.08
2017-07-27T07:09:21.045Z,20.12
2017-07-27T07:11:49.375Z,20.06
2017-07-27T07:14:17.698Z,20.11
2017-07-27T07:16:46.046Z,20.10
2017-07-27T07:19:14.403Z,20.13
2017-07-27T07:21:42.758Z,20.24
2017-07-27T07:24:11.101Z,20.25
2017-07-27T07:26:39.424Z,20.28
2017-07-27T07:29:07.758Z,20.34
2017-07-27T07:31:36.071Z,20.37
2017-07-27T07:34:05.168Z,20.45
2017-07-27T07:36:33.483Z,20.46
2017-07-27T07:39:01.829Z,20.51
2017-07-27T07:41:30.165Z,20.59
2017-07-27T07:43:58.988Z,20.58
2017-07-27T07:46:27.308Z,20.62
2017-07-27T07:48:55.640Z,20.62
2017-07-27T07:51:24.763Z,20.70
2017-07-27T07:53:53.073Z,20.69
2017-07-27T07:56:21.803Z,20.68
2017-07-27T07:58:50.134Z,20.75
2017-07-27T08:01:18.463Z,20.64
2017-07-27T08:03:47.581Z,20.64
2017-07-27T08:06:15.917Z,20.66
2017-07-27T08:09:01.848Z,20.73
2017-07-27T08:11:30.189Z,20.64
2017-07-27T08:13:58.522Z,20.64
2017-07-27T08:16:27.306Z,20.57
2017-07-27T08:18:55.636Z,20.51
2017-07-27T08:21:23.976Z,20.54
2017-07-27T08:23:52.339Z,20.56
2017-07-27T08:26:20.668Z,20.62
2017-07-27T08:28:49.269Z,20.57
2017-07-27T08:31:18.263Z,20.59
2017-07-27T08:33:46.578Z,20.62
2017-07-27T08:36:14.910Z,20.61
2017-07-27T08:38:43.250Z,20.66
2017-07-27T08:41:11.612Z,20.67
2017-07-27T08:43:39.942Z,20.57
2017-07-27T08:46:08.302Z,20.56
2017-07-27T08:48:36.620Z,20.63
2017-07-27T08:51:04.950Z,20.65
2017-07-27T08:53:33.286Z,20.64
2017-07-27T08:56:01.613Z,20.66
2017-07-27T08:58:29.978Z,20.73
2017-07-27T09:00:58.308Z,20.78
2017-07-27T09:03:26.664Z,20.67
2017-07-27T09:05:55.001Z,20.71
2017-07-27T09:08:23.884Z,20.63
2017-07-27T09:10:52.225Z,20.64
2017-07-27T09:13:20.535Z,20.57
2017-07-27T09:15:49.638Z,20.50
2017-07-27T09:18:17.964Z,20.41
2017-07-27T09:20:46.326Z,20.28
2017-07-27T09:23:14.661Z,20.36
2017-07-27T09:25:43.014Z,20.36
2017-07-27T09:28:11.357Z,20.39
2017-07-27T09:30:39.675Z,20.45
2017-07-27T09:33:08.013Z,20.52
2017-07-27T09:35:37.513Z,20.52
2017-07-27T09:38:05.852Z,20.43
2017-07-27T09:40:34.167Z,20.48
2017-07-27T09:43:02.966Z,20.50
2017-07-27T09:45:31.298Z,20.48
2017-07-27T09:47:59.610Z,20.48
2017-07-27T09:50:27.954Z,20.48
2017-07-27T09:52:56.269Z,20.43
2017-07-27T09:55:24.611Z,20.44
2017-07-27T09:57:58.234Z,20.49
2017-07-27T10:00:26.586Z,20.68
2017-07-27T10:02:54.919Z,20.86
2017-07-27T10:05:23.255Z,20.95
2017-07-27T10:07:51.594Z,21.08
2017-07-27T10:10:19.910Z,21.18
2017-07-27T10:12:48.253Z,21.24
2017-07-27T10:15:16.572Z,21.15
2017-07-27T10:17:44.934Z,21.12
2017-07-27T10:20:13.272Z,21.07
2017-07-27T10:22:42.049Z,21.00
2017-07-27T10:25:10.365Z,21.02
2017-07-27T10:27:38.680Z,20.96
2017-07-27T10:30:07.040Z,21.05
2017-07-27T10:32:35.394Z,21.01
2017-07-27T10:35:03.754Z,20.98
2017-07-27T10:37:32.087Z,20.90
2017-07-27T10:40:00.443Z,20.91
2017-07-27T10:42:28.776Z,20.84
2017-07-27T10:44:57.111Z,20.96
2017-07-27T10:47:25.465Z,21.12
2017-07-27T10:49:53.792Z,21.26
2017-07-27T10:52:22.148Z,21.41
2017-07-27T10:54:50.481Z,21.44
2017-07-27T10:57:18.832Z,21.52
2017-07-27T10:59:47.193Z,21.57
2017-07-27T11:02:15.552Z,21.70
2017-07-27T11:04:43.894Z,21.78
2017-07-27T11:07:12.258Z,21.88
2017-07-27T11:09:40.589Z,21.96
2017-07-27T11:12:09.342Z,22.01
2017-07-27T11:14:37.693Z,22.11
2017-07-27T11:17:06.033Z,22.23
2017-07-27T11:19:34.377Z,22.37
2017-07-27T11:22:03.473Z,22.34
2017-07-27T11:24:31.824Z,22.21
2017-07-27T11:27:00.171Z,22.19
2017-07-27T11:29:28.516Z,22.20
2017-07-27T11:31:57.619Z,22.17
2017-07-27T11:34:25.968Z,22.12
2017-07-27T11:36:54.334Z,22.08
2017-07-27T11:39:22.656Z,22.20
2017-07-27T11:41:51.004Z,22.22
2017-07-27T11:44:19.347Z,22.22
2017-07-27T11:46:47.703Z,22.27
2017-07-27T11:49:16.102Z,22.34
2017-07-27T11:51:44.448Z,22.34
2017-07-27T11:54:13.697Z,22.39
2017-07-27T11:56:42.032Z,22.60
2017-07-27T11:59:10.389Z,22.75
2017-07-27T12:01:38.714Z,22.87
2017-07-27T12:04:07.044Z,23.01
2017-07-27T12:06:35.367Z,22.97
2017-07-27T12:09:03.726Z,22.98
2017-07-27T12:11:32.568Z,22.86
2017-07-27T12:14:00.886Z,23.00
2017-07-27T12:16:29.995Z,23.16
2017-07-27T12:18:58.349Z,23.25
2017-07-27T12:21:26.714Z,23.33
2017-07-27T12:23:55.068Z,23.25
2017-07-27T12:26:23.802Z,23.31
2017-07-27T12:28:52.127Z,23.38
2017-07-27T12:31:20.440Z,23.53
2017-07-27T12:33:48.804Z,23.54
2017-07-27T12:36:17.139Z,23.55
2017-07-27T12:38:45.476Z,23.39
2017-07-27T12:41:13.825Z,23.35
2017-07-27T12:43:42.167Z,23.19
2017-07-27T12:46:10.488Z,23.11
2017-07-27T12:48:39.218Z,23.14
2017-07-27T12:51:07.554Z,22.83
2017-07-27T12:53:35.866Z,22.42
2017-07-27T12:56:04.203Z,22.37
2017-07-27T12:58:32.535Z,22.37
2017-07-27T13:01:00.869Z,22.36
2017-07-27T13:03:29.209Z,22.39
2017-07-27T13:05:57.558Z,22.49
2017-07-27T13:08:25.898Z,22.44
2017-07-27T13:10:55.023Z,22.56
2017-07-27T13:13:23.343Z,22.46
2017-07-27T13:15:51.688Z,22.53
2017-07-27T13:18:20.054Z,22.59
2017-07-27T13:20:48.395Z,22.59
2017-07-27T13:23:16.741Z,22.71
2017-07-27T13:25:45.837Z,22.84
2017-07-27T13:28:14.191Z,22.92
2017-07-27T13:30:43.100Z,23.06
2017-07-27T13:33:12.487Z,23.19
2017-07-27T13:35:41.345Z,23.31
2017-07-27T13:38:10.282Z,23.34
2017-07-27T13:40:39.377Z,23.49
2017-07-27T13:43:08.291Z,23.56
2017-07-27T13:45:37.211Z,23.53
2017-07-27T13:48:05.528Z,23.46
2017-07-27T13:50:33.882Z,23.41
2017-07-27T13:53:02.212Z,23.36
2017-07-27T13:55:30.551Z,23.43
2017-07-27T13:57:58.915Z,23.54
2017-07-27T14:00:27.258Z,23.53
2017-07-27T14:02:55.600Z,23.48
2017-07-27T14:05:23.943Z,23.39
2017-07-27T14:07:52.305Z,23.44
2017-07-27T14:10:20.658Z,23.51
2017-07-27T14:12:49.009Z,23.63
2017-07-27T14:15:17.342Z,23.66
2017-07-27T14:17:45.703Z,23.55
2017-07-27T14:20:14.020Z,23.58
2017-07-27T14:22:42.378Z,23.39
2017-07-27T14:25:10.709Z,23.28
2017-07-27T14:27:39.045Z,23.25
2017-07-27T14:30:07.373Z,23.14
2017-07-27T14:32:36.032Z,23.11
2017-07-27T14:35:04.427Z,23.05
2017-07-27T14:37:32.739Z,23.07
2017-07-27T14:40:01.256Z,23.13
2017-07-27T14:42:29.596Z,23.16
2017-07-27T14:44:57.948Z,23.03
2017-07-27T14:47:26.277Z,23.08
2017-07-27T14:49:55.424Z,23.06
2017-07-27T14:52:23.770Z,23.12
2017-07-27T14:54:52.122Z,23.07
2017-07-27T14:57:20.472Z,23.08
2017-07-27T14:59:48.810Z,23.02
2017-07-27T15:02:17.944Z,23.00
2017-07-27T15:04:46.305Z,22.94
2017-07-27T15:07:14.634Z,22.93
2017-07-27T15:09:42.978Z,22.91
2017-07-27T15:12:11.315Z,22.79
2017-07-27T15:14:40.731Z,22.65
2017-07-27T15:17:09.065Z,22.36
2017-07-27T15:19:37.391Z,22.05
2017-07-27T15:22:05.741Z,21.91
2017-07-27T15:24:34.077Z,21.75
2017-07-27T15:27:03.103Z,21.67
2017-07-27T15:29:31.447Z,21.45
2017-07-27T15:32:00.219Z,21.52
2017-07-27T15:34:28.556Z,21.38
2017-07-27T15:36:56.901Z,21.32
2017-07-27T15:39:25.768Z,21.26
2017-07-27T15:41:54.191Z,21.37
2017-07-27T15:44:22.542Z,21.35
2017-07-27T15:46:50.885Z,21.38
2017-07-27T15:49:19.230Z,21.35
2017-07-27T15:51:47.612Z,21.15
2017-07-27T15:54:16.685Z,21.20
2017-07-27T15:56:45.449Z,21.10
2017-07-27T15:59:14.585Z,20.99
2017-07-27T16:01:42.921Z,20.95
2017-07-27T16:04:11.287Z,20.94
2017-07-27T16:06:40.393Z,20.94
2017-07-27T16:09:08.771Z,20.87
2017-07-27T16:11:37.130Z,20.80
2017-07-27T16:14:05.464Z,20.89
2017-07-27T16:16:33.836Z,20.95
2017-07-27T16:19:02.186Z,21.08
2017-07-27T16:21:30.507Z,21.10
2017-07-27T16:23:58.840Z,21.10
2017-07-27T16:26:27.156Z,21.00
2017-07-27T16:28:55.762Z,21.07
2017-07-27T16:31:24.085Z,21.09
2017-07-27T16:33:52.413Z,21.17
2017-07-27T16:36:20.787Z,21.25
2017-07-27T16:38:49.104Z,21.07
2017-07-27T16:41:17.729Z,21.13
2017-07-27T16:43:46.105Z,21.23
2017-07-27T16:46:14.441Z,21.12
2017-07-27T16:48:42.810Z,21.04
2017-07-27T16:51:11.179Z,21.04
2017-07-27T16:53:39.495Z,20.93
2017-07-27T16:56:07.944Z,20.99
2017-07-27T16:58:36.259Z,20.83
2017-07-27T17:01:04.610Z,20.81
2017-07-27T17:03:32.950Z,20.82
2017-07-27T17:06:01.305Z,20.77
2017-07-27T17:08:29.641Z,20.81
2017-07-27T17:10:57.981Z,20.77
2017-07-27T17:13:26.608Z,20.69
2017-07-27T17:15:54.947Z,20.58
2017-07-27T17:18:23.773Z,20.57
2017-07-27T17:20:52.169Z,20.58
2017-07-27T17:23:20.508Z,20.48
2017-07-27T17:25:49.136Z,20.44
2017-07-27T17:28:17.462Z,20.42
2017-07-27T17:30:45.811Z,20.37
2017-07-27T17:33:14.180Z,20.39
2017-07-27T17:35:42.521Z,20.38
2017-07-27T17:38:10.863Z,20.37
2017-07-27T17:40:39.494Z,20.42
2017-07-27T17:43:07.826Z,20.29
2017-07-27T17:45:36.163Z,20.23
2017-07-27T17:48:04.507Z,20.27
2017-07-27T17:50:32.826Z,20.19
2017-07-27T17:53:01.151Z,20.23
2017-07-27T17:55:29.542Z,20.13
2017-07-27T17:57:57.863Z,20.02
2017-07-27T18:00:27.412Z,20.03
2017-07-27T18:02:55.757Z,19.95
2017-07-27T18:05:24.085Z,19.85
2017-07-27T18:07:52.446Z,19.93
2017-07-27T18:10:21.260Z,19.96
2017-07-27T18:12:49.877Z,19.90
2017-07-27T18:15:18.300Z,19.98
2017-07-27T18:17:46.639Z,20.08
2017-07-27T18:20:15.003Z,20.09
2017-07-27T18:22:43.338Z,20.13
2017-07-27T18:25:11.967Z,20.15
2017-07-27T18:27:40.316Z,19.99
2017-07-27T18:30:08.651Z,20.03
2017-07-27T18:32:36.996Z,20.10
2017-07-27T18:35:08.653Z,19.98
2017-07-27T18:37:37.271Z,19.93
2017-07-27T18:40:05.608Z,19.98
2017-07-27T18:42:33.944Z,19.84
2017-07-27T18:45:02.290Z,19.98
2017-07-27T18:47:30.622Z,19.97
2017-07-27T18:49:59.255Z,20.02
2017-07-27T18:52:27.597Z,19.98
2017-07-27T18:54:55.927Z,19.88
2017-07-27T18:57:24.268Z,19.88
2017-07-27T18:59:52.611Z,19.73
2017-07-27T19:02:20.988Z,19.70
2017-07-27T19:04:49.314Z,19.77
2017-07-27T19:07:17.669Z,19.70
2017-07-27T19:09:46.019Z,19.64
2017-07-27T19:12:14.362Z,19.56
2017-07-27T19:14:43.004Z,19.64
2017-07-27T19:17:11.327Z,19.63
2017-07-27T19:19:39.671Z,19.56
2017-07-27T19:22:08.051Z,19.62
2017-07-27T19:24:36.384Z,19.50
2017-07-27T19:27:04.998Z,19.56
2017-07-27T19:29:33.333Z,19.67
2017-07-27T19:32:02.139Z,19.72
2017-07-27T19:34:30.502Z,19.69
2017-07-27T19:36:58.830Z,19.63
2017-07-27T19:39:27.988Z,19.55
2017-07-27T19:41:56.324Z,19.47
2017-07-27T19:44:24.697Z,19.48
2017-07-27T19:46:53.056Z,19.34
2017-07-27T19:49:21.438Z,19.32
2017-07-27T19:51:49.789Z,19.20
2017-07-27T19:54:18.693Z,19.24
2017-07-27T19:56:47.047Z,19.22
2017-07-27T19:59:15.419Z,19.17
2017-07-27T20:01:43.765Z,19.09
2017-07-27T20:04:12.372Z,18.99
2017-07-27T20:06:40.716Z,18.95
2017-07-27T20:09:09.052Z,19.14
2017-07-27T20:11:37.443Z,18.91
2017-07-27T20:14:05.772Z,18.91
2017-07-27T20:16:34.366Z,18.98
2017-07-27T20:19:02.696Z,18.99
2017-07-27T20:21:31.047Z,19.11
2017-07-27T20:23:59.765Z,18.91
2017-07-27T20:26:28.099Z,18.89
2017-07-27T20:28:56.425Z,18.84
2017-07-27T20:31:24.777Z,18.78
2017-07-27T20:33:53.180Z,18.88
2017-07-27T20:36:21.807Z,18.78
2017-07-27T20:38:50.187Z,18.79
2017-07-27T20:41:18.521Z,18.76
2017-07-27T20:43:46.883Z,18.75
2017-07-27T20:46:15.209Z,18.80
2017-07-27T20:48:43.810Z,18.69
2017-07-27T20:51:12.161Z,18.78
2017-07-27T20:53:40.511Z,18.72
2017-07-27T20:56:08.907Z,18.58
2017-07-27T20:58:37.258Z,18.65
2017-07-27T21:01:05.930Z,18.68
2017-07-27T21:03:34.275Z,18.58
2017-07-27T21:06:02.594Z,18.69
2017-07-27T21:08:31.006Z,18.71
2017-07-27T21:10:59.347Z,18.62
2017-07-27T21:13:27.687Z,18.60
2017-07-27T21:15:56.038Z,18.52
2017-07-27T21:18:24.487Z,18.50
2017-07-27T21:20:52.838Z,18.33
2017-07-27T21:23:21.186Z,18.37
2017-07-27T21:25:49.984Z,18.32
2017-07-27T21:28:18.340Z,18.31
2017-07-27T21:30:46.667Z,18.29
2017-07-27T21:33:15.790Z,18.18
2017-07-27T21:35:44.154Z,17.85
2017-07-27T21:38:12.536Z,17.76
2017-07-27T21:40:40.896Z,17.66
2017-07-27T21:43:09.227Z,17.76
2017-07-27T21:45:37.584Z,17.82
2017-07-27T21:48:05.964Z,17.66
2017-07-27T21:50:34.765Z,17.61
2017-07-27T21:53:03.098Z,17.52
2017-07-27T21:55:31.448Z,17.52
2017-07-27T21:57:59.802Z,17.39
2017-07-27T22:00:28.207Z,17.32
2017-07-27T22:02:56.958Z,17.39
2017-07-27T22:05:25.296Z,17.19
2017-07-27T22:07:53.626Z,17.15
2017-07-27T22:10:21.991Z,17.19
2017-07-27T22:12:50.341Z,17.13
2017-07-27T22:15:19.062Z,16.96
2017-07-27T22:17:47.435Z,17.03
2017-07-27T22:20:16.545Z,16.83
2017-07-27T22:22:44.913Z,16.86
2017-07-27T22:25:13.250Z,16.84
2017-07-27T22:27:41.623Z,16.68
2017-07-27T22:30:09.978Z,16.60
2017-07-27T22:32:38.314Z,16.60
2017-07-27T22:35:06.657Z,16.72
2017-07-27T22:37:34.968Z,16.51
2017-07-27T22:40:03.304Z,16.45
2017-07-27T22:42:31.621Z,16.50
2017-07-27T22:44:59.973Z,16.34
2017-07-27T22:47:28.314Z,16.42
2017-07-27T22:49:56.654Z,16.43
2017-07-27T22:52:25.020Z,16.48
2017-07-27T22:54:53.338Z,16.28
2017-07-27T22:57:21.844Z,16.28
2017-07-27T22:59:50.201Z,16.33
2017-07-27T23:02:19.320Z,16.37
2017-07-27T23:04:47.664Z,16.23
2017-07-27T23:07:16.004Z,16.30
2017-07-27T23:09:44.316Z,16.24
2017-07-27T23:12:13.035Z,16.05
2017-07-27T23:14:42.130Z,16.03
2017-07-27T23:17:10.468Z,15.93
2017-07-27T23:19:38.797Z,15.92
2017-07-27T23:22:07.135Z,15.91
2017-07-27T23:24:35.456Z,15.97
2017-07-27T23:27:03.814Z,15.94
2017-07-27T23:29:32.156Z,15.78
2017-07-27T23:32:00.492Z,15.89
2017-07-27T23:34:28.813Z,15.95
2017-07-27T23:36:57.178Z,15.91
2017-07-27T23:39:25.510Z,15.87
2017-07-27T23:41:53.849Z,15.74
2017-07-27T23:44:22.177Z,15.64
2017-07-27T23:46:50.534Z,15.80
2017-07-27T23:49:18.865Z,15.65
2017-07-27T23:51:47.197Z,15.59
2017-07-27T23:54:15.567Z,15.50
2017-07-27T23:56:43.912Z,15.55
2017-07-27T23:59:12.263Z,15.53
